AEE543 EDDL-LGTS
Flight info
| Callsign | AEE543 |
|---|---|
| Flight time | N/A |
| Altitude | 37000 |
| Route | KUMIK5Z KUMIK Y854 BOMBI DCT DETEV DCT DINKU DCT BESNI DCT LATLO DCT OBEDI DCT BERTA DCT TEBLI DCT BOSNA DCT MODRA DCT MEDUX UM867 KOGAT DCT ERANA T389 ALIKO |
| Aircraft | A320/M-SDE3FGHIRWY/LB1 |
Departure
| Time | N/A |
|---|---|
| Airport | Düsseldorf Airport (EDDL) |
Arrival
| Time | 2026-04-27 12:58 |
|---|---|
| Airport | Thessaloniki Macedonia International Airport (LGTS) |
| Time | Latitude | Longitude | Altitude | Speed | Heading |
|---|---|---|---|---|---|
| 2026-04-27 11:43 | 45.87126 | 15.59462 | 37191 ft | 467 kts | 130° |
| 2026-04-27 11:43 | 45.82859 | 15.66482 | 37201 ft | 467 kts | 130° |
| 2026-04-27 11:44 | 45.78580 | 15.73499 | 37208 ft | 467 kts | 130° |
| 2026-04-27 11:44 | 45.74306 | 15.80494 | 37213 ft | 467 kts | 130° |
| 2026-04-27 11:45 | 45.70021 | 15.87481 | 37241 ft | 467 kts | 130° |
| 2026-04-27 11:45 | 45.65737 | 15.94455 | 37229 ft | 467 kts | 130° |
| 2026-04-27 11:46 | 45.61449 | 16.01428 | 37230 ft | 467 kts | 130° |
| 2026-04-27 11:46 | 45.57149 | 16.08390 | 37227 ft | 467 kts | 130° |
| 2026-04-27 11:47 | 45.52842 | 16.15339 | 37229 ft | 468 kts | 130° |
| 2026-04-27 11:47 | 45.48534 | 16.22293 | 37236 ft | 468 kts | 130° |
| 2026-04-27 11:48 | 45.44217 | 16.29235 | 37227 ft | 468 kts | 130° |
| 2026-04-27 11:48 | 45.39920 | 16.36120 | 37227 ft | 468 kts | 130° |
| 2026-04-27 11:49 | 45.35589 | 16.43038 | 37216 ft | 468 kts | 130° |
| 2026-04-27 11:49 | 45.31262 | 16.49947 | 37236 ft | 468 kts | 131° |
| 2026-04-27 11:50 | 45.26933 | 16.56829 | 37227 ft | 467 kts | 131° |
| 2026-04-27 11:50 | 45.22599 | 16.63705 | 37225 ft | 467 kts | 131° |
| 2026-04-27 11:51 | 45.18192 | 16.70469 | 37222 ft | 467 kts | 134° |
| 2026-04-27 11:52 | 45.11053 | 16.79853 | 37211 ft | 467 kts | 138° |
| 2026-04-27 11:52 | 45.06228 | 16.86019 | 37210 ft | 467 kts | 137° |
| 2026-04-27 11:53 | 45.01474 | 16.92271 | 37211 ft | 467 kts | 136° |
| 2026-04-27 11:53 | 44.96746 | 16.98555 | 37210 ft | 467 kts | 136° |
| 2026-04-27 11:54 | 44.92005 | 17.04817 | 37216 ft | 467 kts | 137° |
| 2026-04-27 11:54 | 44.87247 | 17.11054 | 37204 ft | 467 kts | 137° |
| 2026-04-27 11:55 | 44.82487 | 17.17259 | 37204 ft | 466 kts | 137° |
| 2026-04-27 11:55 | 44.77728 | 17.23471 | 37205 ft | 466 kts | 137° |
| 2026-04-27 11:56 | 44.72975 | 17.29668 | 37213 ft | 466 kts | 137° |
| 2026-04-27 11:56 | 44.68250 | 17.35812 | 37205 ft | 466 kts | 137° |
| 2026-04-27 11:57 | 44.63491 | 17.41982 | 37196 ft | 465 kts | 137° |
| 2026-04-27 11:57 | 44.58728 | 17.48136 | 37181 ft | 465 kts | 138° |
| 2026-04-27 11:58 | 44.53962 | 17.54283 | 37176 ft | 466 kts | 138° |
| 2026-04-27 11:58 | 44.49192 | 17.60421 | 37187 ft | 465 kts | 138° |
| 2026-04-27 11:59 | 44.44418 | 17.66549 | 37175 ft | 465 kts | 138° |
| 2026-04-27 11:59 | 44.39646 | 17.72669 | 37176 ft | 465 kts | 138° |
| 2026-04-27 12:00 | 44.34991 | 17.78680 | 37165 ft | 466 kts | 137° |
| 2026-04-27 12:00 | 44.30377 | 17.85036 | 37169 ft | 466 kts | 135° |
| 2026-04-27 12:01 | 44.25817 | 17.91478 | 37168 ft | 467 kts | 135° |
| 2026-04-27 12:01 | 44.21231 | 17.97876 | 37167 ft | 466 kts | 136° |
| 2026-04-27 12:02 | 44.16611 | 18.04218 | 37159 ft | 466 kts | 136° |
| 2026-04-27 12:02 | 44.11981 | 18.10543 | 37155 ft | 466 kts | 137° |
| 2026-04-27 12:03 | 44.07360 | 18.16861 | 37147 ft | 466 kts | 137° |
| 2026-04-27 12:03 | 44.02734 | 18.23177 | 37148 ft | 466 kts | 137° |
| 2026-04-27 12:04 | 43.98126 | 18.29444 | 37148 ft | 467 kts | 137° |
| 2026-04-27 12:04 | 43.93484 | 18.35743 | 37151 ft | 467 kts | 137° |
| 2026-04-27 12:05 | 43.88837 | 18.42038 | 37151 ft | 467 kts | 137° |
| 2026-04-27 12:05 | 43.84191 | 18.48337 | 37139 ft | 467 kts | 137° |
| 2026-04-27 12:06 | 43.79538 | 18.54620 | 37145 ft | 467 kts | 137° |
| 2026-04-27 12:06 | 43.74871 | 18.60895 | 37153 ft | 468 kts | 137° |
| 2026-04-27 12:07 | 43.70208 | 18.67159 | 37154 ft | 468 kts | 137° |
| 2026-04-27 12:07 | 43.65533 | 18.73422 | 37155 ft | 468 kts | 137° |
| 2026-04-27 12:08 | 43.60859 | 18.79678 | 37137 ft | 468 kts | 138° |
| 2026-04-27 12:08 | 43.56178 | 18.85921 | 37140 ft | 468 kts | 138° |
| 2026-04-27 12:09 | 43.51489 | 18.92157 | 37141 ft | 468 kts | 138° |
| 2026-04-27 12:09 | 43.46796 | 18.98381 | 37144 ft | 469 kts | 138° |
| 2026-04-27 12:10 | 43.42099 | 19.04598 | 37149 ft | 469 kts | 138° |
| 2026-04-27 12:10 | 43.37396 | 19.10824 | 37145 ft | 469 kts | 138° |
| 2026-04-27 12:11 | 43.32688 | 19.17035 | 37135 ft | 469 kts | 138° |
| 2026-04-27 12:11 | 43.27975 | 19.23247 | 37136 ft | 470 kts | 138° |
| 2026-04-27 12:12 | 43.23255 | 19.29451 | 37145 ft | 470 kts | 139° |
| 2026-04-27 12:12 | 43.18524 | 19.35637 | 37148 ft | 470 kts | 139° |
| 2026-04-27 12:13 | 43.13792 | 19.41812 | 37150 ft | 470 kts | 139° |
| 2026-04-27 12:13 | 43.09055 | 19.47995 | 37155 ft | 470 kts | 139° |
| 2026-04-27 12:14 | 43.04316 | 19.54159 | 37154 ft | 470 kts | 139° |
| 2026-04-27 12:14 | 42.99710 | 19.60507 | 37153 ft | 472 kts | 131° |
| 2026-04-27 12:15 | 42.95559 | 19.67469 | 37156 ft | 472 kts | 131° |
| 2026-04-27 12:15 | 42.91418 | 19.74421 | 37159 ft | 472 kts | 131° |
| 2026-04-27 12:16 | 42.87298 | 19.81325 | 37156 ft | 472 kts | 131° |
| 2026-04-27 12:16 | 42.83149 | 19.88252 | 37154 ft | 472 kts | 131° |
| 2026-04-27 12:17 | 42.78993 | 19.95165 | 37166 ft | 471 kts | 131° |
| 2026-04-27 12:17 | 42.74833 | 20.02058 | 37171 ft | 471 kts | 131° |
| 2026-04-27 12:18 | 42.70669 | 20.08943 | 37178 ft | 471 kts | 131° |
| 2026-04-27 12:18 | 42.66512 | 20.15809 | 37168 ft | 470 kts | 131° |
| 2026-04-27 12:19 | 42.62349 | 20.22664 | 37176 ft | 470 kts | 131° |
| 2026-04-27 12:19 | 42.58193 | 20.29499 | 37166 ft | 470 kts | 131° |
| 2026-04-27 12:20 | 42.54021 | 20.36333 | 37199 ft | 470 kts | 131° |
| 2026-04-27 12:20 | 42.49851 | 20.43162 | 37197 ft | 470 kts | 131° |
| 2026-04-27 12:21 | 42.45681 | 20.49978 | 37186 ft | 469 kts | 131° |
| 2026-04-27 12:21 | 42.41508 | 20.56768 | 37184 ft | 469 kts | 131° |
| 2026-04-27 12:22 | 42.37327 | 20.63550 | 37190 ft | 469 kts | 131° |
| 2026-04-27 12:22 | 42.33148 | 20.70321 | 37189 ft | 469 kts | 131° |
| 2026-04-27 12:23 | 42.28971 | 20.77086 | 37186 ft | 469 kts | 131° |
| 2026-04-27 12:23 | 42.24805 | 20.83788 | 37196 ft | 469 kts | 131° |
| 2026-04-27 12:23 | 42.22708 | 20.87166 | 36988 ft | 469 kts | 131° |
| 2026-04-27 12:24 | 42.20615 | 20.90538 | 36720 ft | 469 kts | 131° |
| 2026-04-27 12:24 | 42.18521 | 20.93904 | 36461 ft | 468 kts | 131° |
| 2026-04-27 12:24 | 42.16426 | 20.97265 | 36201 ft | 468 kts | 131° |
| 2026-04-27 12:24 | 42.14326 | 21.00623 | 35937 ft | 468 kts | 131° |
| 2026-04-27 12:25 | 42.12225 | 21.03981 | 35690 ft | 468 kts | 131° |
| 2026-04-27 12:25 | 42.09991 | 21.07159 | 35438 ft | 467 kts | 138° |
| 2026-04-27 12:25 | 42.07631 | 21.10167 | 35187 ft | 467 kts | 138° |
| 2026-04-27 12:25 | 42.05277 | 21.13161 | 34940 ft | 465 kts | 138° |
| 2026-04-27 12:26 | 42.03686 | 21.15181 | 34783 ft | 464 kts | 138° |
| 2026-04-27 12:26 | 42.01340 | 21.18153 | 34530 ft | 462 kts | 138° |
| 2026-04-27 12:26 | 41.99003 | 21.21113 | 34290 ft | 461 kts | 138° |
| 2026-04-27 12:26 | 41.96674 | 21.24061 | 34031 ft | 459 kts | 138° |
| 2026-04-27 12:27 | 41.94357 | 21.26993 | 33754 ft | 456 kts | 138° |
| 2026-04-27 12:27 | 41.92052 | 21.29904 | 33482 ft | 454 kts | 138° |
| 2026-04-27 12:27 | 41.89755 | 21.32804 | 33208 ft | 452 kts | 138° |
| 2026-04-27 12:27 | 41.87467 | 21.35694 | 32938 ft | 450 kts | 138° |
| 2026-04-27 12:28 | 41.85191 | 21.38568 | 32670 ft | 448 kts | 138° |
| 2026-04-27 12:28 | 41.82926 | 21.41420 | 32411 ft | 446 kts | 138° |
| 2026-04-27 12:28 | 41.80663 | 21.44264 | 32149 ft | 444 kts | 138° |
| 2026-04-27 12:28 | 41.78443 | 21.47052 | 31893 ft | 443 kts | 138° |
| 2026-04-27 12:29 | 41.76199 | 21.49865 | 31635 ft | 441 kts | 138° |
| 2026-04-27 12:29 | 41.73961 | 21.52666 | 31389 ft | 439 kts | 138° |
| 2026-04-27 12:29 | 41.71735 | 21.55450 | 31130 ft | 438 kts | 138° |
| 2026-04-27 12:29 | 41.69516 | 21.58228 | 30882 ft | 436 kts | 138° |
| 2026-04-27 12:30 | 41.67309 | 21.60987 | 30634 ft | 432 kts | 138° |
| 2026-04-27 12:30 | 41.65123 | 21.63716 | 30199 ft | 429 kts | 138° |
| 2026-04-27 12:30 | 41.62950 | 21.66423 | 29696 ft | 425 kts | 138° |
| 2026-04-27 12:30 | 41.60796 | 21.69107 | 29240 ft | 421 kts | 137° |
| 2026-04-27 12:31 | 41.58662 | 21.71769 | 28796 ft | 418 kts | 137° |
| 2026-04-27 12:31 | 41.56546 | 21.74407 | 28350 ft | 415 kts | 137° |
| 2026-04-27 12:31 | 41.54446 | 21.77017 | 27926 ft | 411 kts | 137° |
| 2026-04-27 12:31 | 41.52359 | 21.79604 | 27515 ft | 407 kts | 137° |
| 2026-04-27 12:32 | 41.50289 | 21.82164 | 27088 ft | 404 kts | 137° |
| 2026-04-27 12:32 | 41.48234 | 21.84703 | 26693 ft | 401 kts | 137° |
| 2026-04-27 12:32 | 41.46197 | 21.87225 | 26295 ft | 398 kts | 137° |
| 2026-04-27 12:32 | 41.44174 | 21.89731 | 25882 ft | 395 kts | 137° |
| 2026-04-27 12:33 | 41.42168 | 21.92217 | 25473 ft | 393 kts | 137° |
| 2026-04-27 12:33 | 41.40174 | 21.94687 | 25065 ft | 390 kts | 137° |
| 2026-04-27 12:33 | 41.38187 | 21.97144 | 24649 ft | 388 kts | 137° |
| 2026-04-27 12:33 | 41.36208 | 21.99581 | 24227 ft | 386 kts | 137° |
| 2026-04-27 12:34 | 41.34236 | 22.02004 | 23790 ft | 385 kts | 137° |
| 2026-04-27 12:34 | 41.32271 | 22.04417 | 23313 ft | 383 kts | 136° |
| 2026-04-27 12:34 | 41.30322 | 22.06809 | 22875 ft | 380 kts | 137° |
| 2026-04-27 12:34 | 41.28390 | 22.09177 | 22436 ft | 376 kts | 137° |
| 2026-04-27 12:35 | 41.26473 | 22.11523 | 21994 ft | 373 kts | 137° |
| 2026-04-27 12:35 | 41.24575 | 22.13847 | 21549 ft | 370 kts | 137° |
| 2026-04-27 12:35 | 41.22691 | 22.16156 | 21112 ft | 367 kts | 138° |
| 2026-04-27 12:35 | 41.20818 | 22.18454 | 20671 ft | 366 kts | 139° |
| 2026-04-27 12:36 | 41.18954 | 22.20739 | 20234 ft | 364 kts | 139° |
| 2026-04-27 12:36 | 41.17062 | 22.22955 | 19781 ft | 362 kts | 144° |
| 2026-04-27 12:36 | 41.14930 | 22.24686 | 19342 ft | 358 kts | 156° |
| 2026-04-27 12:36 | 41.12642 | 22.25951 | 18902 ft | 355 kts | 160° |
| 2026-04-27 12:37 | 41.10359 | 22.27172 | 18457 ft | 353 kts | 160° |
| 2026-04-27 12:37 | 41.08118 | 22.28373 | 17986 ft | 351 kts | 159° |
| 2026-04-27 12:37 | 41.05866 | 22.29582 | 17549 ft | 347 kts | 159° |
| 2026-04-27 12:37 | 41.03608 | 22.30796 | 17112 ft | 344 kts | 159° |
| 2026-04-27 12:38 | 41.01399 | 22.31988 | 16683 ft | 341 kts | 159° |
| 2026-04-27 12:38 | 40.99208 | 22.33170 | 16266 ft | 338 kts | 159° |
| 2026-04-27 12:38 | 40.97064 | 22.34322 | 15848 ft | 336 kts | 160° |
| 2026-04-27 12:38 | 40.94907 | 22.35477 | 15439 ft | 334 kts | 159° |
| 2026-04-27 12:39 | 40.92756 | 22.36630 | 15028 ft | 333 kts | 159° |
| 2026-04-27 12:39 | 40.90614 | 22.37774 | 14615 ft | 332 kts | 159° |
| 2026-04-27 12:39 | 40.88479 | 22.38918 | 14204 ft | 331 kts | 159° |
| 2026-04-27 12:39 | 40.86345 | 22.40058 | 13779 ft | 330 kts | 159° |
| 2026-04-27 12:40 | 40.84221 | 22.41193 | 13355 ft | 328 kts | 159° |
| 2026-04-27 12:40 | 40.82108 | 22.42322 | 12961 ft | 326 kts | 159° |
| 2026-04-27 12:40 | 40.80008 | 22.43447 | 12569 ft | 325 kts | 159° |
| 2026-04-27 12:40 | 40.78028 | 22.44876 | 12165 ft | 325 kts | 145° |
| 2026-04-27 12:41 | 40.76363 | 22.46892 | 11739 ft | 327 kts | 131° |
| 2026-04-27 12:41 | 40.75070 | 22.49355 | 11350 ft | 327 kts | 123° |
| 2026-04-27 12:41 | 40.73845 | 22.51889 | 10936 ft | 328 kts | 123° |
| 2026-04-27 12:41 | 40.72618 | 22.54421 | 10567 ft | 327 kts | 123° |
| 2026-04-27 12:42 | 40.71398 | 22.56937 | 10279 ft | 323 kts | 123° |
| 2026-04-27 12:42 | 40.70192 | 22.59417 | 9990 ft | 320 kts | 123° |
| 2026-04-27 12:42 | 40.68998 | 22.61861 | 9735 ft | 314 kts | 123° |
| 2026-04-27 12:42 | 40.67826 | 22.64268 | 9470 ft | 310 kts | 123° |
| 2026-04-27 12:43 | 40.66674 | 22.66642 | 9209 ft | 307 kts | 123° |
| 2026-04-27 12:43 | 40.65535 | 22.69001 | 8950 ft | 303 kts | 123° |
| 2026-04-27 12:43 | 40.64401 | 22.71351 | 8478 ft | 307 kts | 123° |
| 2026-04-27 12:43 | 40.63246 | 22.73744 | 7955 ft | 312 kts | 123° |
| 2026-04-27 12:44 | 40.62054 | 22.76161 | 7426 ft | 316 kts | 128° |
| 2026-04-27 12:44 | 40.60460 | 22.78122 | 6916 ft | 315 kts | 148° |
| 2026-04-27 12:44 | 40.58612 | 22.79688 | 6404 ft | 317 kts | 150° |
| 2026-04-27 12:44 | 40.56740 | 22.81157 | 6111 ft | 309 kts | 156° |
| 2026-04-27 12:45 | 40.54884 | 22.82222 | 5861 ft | 302 kts | 160° |
| 2026-04-27 12:45 | 40.52962 | 22.83287 | 5577 ft | 297 kts | 152° |
| 2026-04-27 12:45 | 40.51394 | 22.84997 | 5301 ft | 292 kts | 133° |
| 2026-04-27 12:45 | 40.50074 | 22.86996 | 5029 ft | 287 kts | 127° |
| 2026-04-27 12:46 | 40.49234 | 22.89323 | 4750 ft | 282 kts | 101° |
| 2026-04-27 12:46 | 40.49162 | 22.91862 | 4523 ft | 275 kts | 87° |
| 2026-04-27 12:46 | 40.49080 | 22.94331 | 4318 ft | 268 kts | 104° |
| 2026-04-27 12:46 | 40.48515 | 22.96639 | 4117 ft | 262 kts | 110° |
| 2026-04-27 12:47 | 40.47896 | 22.98865 | 3917 ft | 257 kts | 110° |
| 2026-04-27 12:47 | 40.47285 | 23.01043 | 3717 ft | 252 kts | 111° |
| 2026-04-27 12:47 | 40.46691 | 23.03182 | 3516 ft | 247 kts | 110° |
| 2026-04-27 12:47 | 40.46113 | 23.05288 | 3335 ft | 241 kts | 111° |
| 2026-04-27 12:48 | 40.45582 | 23.07306 | 3330 ft | 226 kts | 105° |
| 2026-04-27 12:48 | 40.45585 | 23.09288 | 3323 ft | 214 kts | 71° |
| 2026-04-27 12:48 | 40.46450 | 23.10872 | 3320 ft | 227 kts | 37° |
| 2026-04-27 12:48 | 40.47932 | 23.11645 | 3321 ft | 236 kts | 11° |
| 2026-04-27 12:49 | 40.49573 | 23.11880 | 3323 ft | 238 kts | 1° |
| 2026-04-27 12:49 | 40.51209 | 23.11560 | 3321 ft | 239 kts | 347° |
| 2026-04-27 12:49 | 40.52820 | 23.11031 | 3324 ft | 238 kts | 346° |
| 2026-04-27 12:49 | 40.54427 | 23.10474 | 3322 ft | 239 kts | 342° |
| 2026-04-27 12:50 | 40.55974 | 23.09688 | 3326 ft | 237 kts | 336° |
| 2026-04-27 12:50 | 40.57492 | 23.08817 | 3328 ft | 238 kts | 335° |
| 2026-04-27 12:50 | 40.59021 | 23.07970 | 3319 ft | 238 kts | 341° |
| 2026-04-27 12:50 | 40.60609 | 23.07365 | 3329 ft | 238 kts | 345° |
| 2026-04-27 12:51 | 40.62214 | 23.06816 | 3327 ft | 238 kts | 346° |
| 2026-04-27 12:51 | 40.63808 | 23.06270 | 3329 ft | 234 kts | 345° |
| 2026-04-27 12:51 | 40.65354 | 23.05746 | 3280 ft | 225 kts | 346° |
| 2026-04-27 12:51 | 40.66834 | 23.05245 | 3183 ft | 214 kts | 346° |
| 2026-04-27 12:52 | 40.68249 | 23.04754 | 3112 ft | 207 kts | 345° |
| 2026-04-27 12:52 | 40.69581 | 23.04142 | 3039 ft | 200 kts | 323° |
| 2026-04-27 12:52 | 40.70416 | 23.02762 | 2957 ft | 193 kts | 282° |
| 2026-04-27 12:52 | 40.70499 | 23.01051 | 2881 ft | 188 kts | 261° |
| 2026-04-27 12:53 | 40.70061 | 22.97665 | 2731 ft | 182 kts | 255° |
| 2026-04-27 12:53 | 40.69847 | 22.96072 | 2688 ft | 172 kts | 255° |
| 2026-04-27 12:53 | 40.69462 | 22.94620 | 2632 ft | 165 kts | 235° |
| 2026-04-27 12:54 | 40.68748 | 22.93492 | 2584 ft | 157 kts | 215° |
| 2026-04-27 12:54 | 40.67824 | 22.92778 | 2531 ft | 154 kts | 197° |
| 2026-04-27 12:54 | 40.66784 | 22.92512 | 2482 ft | 152 kts | 179° |
| 2026-04-27 12:54 | 40.65751 | 22.92702 | 2428 ft | 150 kts | 167° |
| 2026-04-27 12:55 | 40.64743 | 22.93025 | 2335 ft | 148 kts | 167° |
| 2026-04-27 12:55 | 40.63744 | 22.93343 | 2173 ft | 148 kts | 167° |
| 2026-04-27 12:55 | 40.62749 | 22.93661 | 2001 ft | 145 kts | 165° |
| 2026-04-27 12:55 | 40.61761 | 22.93976 | 1804 ft | 146 kts | 166° |
| 2026-04-27 12:56 | 40.60784 | 22.94288 | 1608 ft | 146 kts | 166° |
| 2026-04-27 12:56 | 40.59794 | 22.94603 | 1410 ft | 147 kts | 167° |
| 2026-04-27 12:56 | 40.58822 | 22.94913 | 1211 ft | 138 kts | 167° |
| 2026-04-27 12:56 | 40.57908 | 22.95204 | 1031 ft | 135 kts | 166° |
| 2026-04-27 12:57 | 40.56980 | 22.95503 | 879 ft | 139 kts | 166° |
| 2026-04-27 12:57 | 40.56051 | 22.95803 | 638 ft | 137 kts | 167° |
| 2026-04-27 12:57 | 40.55133 | 22.96098 | 466 ft | 136 kts | 167° |
| 2026-04-27 12:57 | 40.54212 | 22.96397 | 302 ft | 135 kts | 170° |
| 2026-04-27 12:58 | 40.53309 | 22.96668 | 153 ft | 132 kts | 167° |
| 2026-04-27 12:58 | 40.52438 | 22.96931 | 30 ft | 117 kts | 165° |
| 2026-04-27 12:58 | 40.51897 | 22.97119 | 28 ft | 48 kts | 169° |
| 2026-04-27 12:58 | 40.51613 | 22.97214 | 30 ft | 29 kts | 165° |
| 2026-04-27 12:59 | 40.51514 | 22.97287 | 30 ft | 14 kts | 109° |
| 2026-04-27 12:59 | 40.51547 | 22.97405 | 29 ft | 16 kts | 16° |
| 2026-04-27 12:59 | 40.51658 | 22.97378 | 29 ft | 17 kts | 348° |
| 2026-04-27 12:59 | 40.51755 | 22.97347 | 29 ft | 10 kts | 345° |
| 2026-04-27 13:00 | 40.51829 | 22.97324 | 28 ft | 12 kts | 346° |
| 2026-04-27 13:00 | 40.51925 | 22.97295 | 30 ft | 16 kts | 347° |
| 2026-04-27 13:00 | 40.52032 | 22.97262 | 27 ft | 13 kts | 346° |
| 2026-04-27 13:00 | 40.52074 | 22.97248 | 28 ft | 0 kts | 346° |
| 2026-04-27 13:01 | 40.52075 | 22.97248 | 28 ft | 1 kts | 346° |
| 2026-04-27 13:01 | 40.52098 | 22.97256 | 28 ft | 5 kts | 36° |
| 2026-04-27 13:01 | 40.52105 | 22.97302 | 28 ft | 6 kts | 94° |
| 2026-04-27 13:01 | 40.52092 | 22.97369 | 28 ft | 9 kts | 103° |
| 2026-04-27 13:02 | 40.52075 | 22.97466 | 28 ft | 13 kts | 104° |
| 2026-04-27 13:02 | 40.52051 | 22.97587 | 28 ft | 14 kts | 104° |
| 2026-04-27 13:02 | 40.52029 | 22.97711 | 29 ft | 14 kts | 91° |
| 2026-04-27 13:02 | 40.52093 | 22.97728 | 29 ft | 13 kts | 316° |
| 2026-04-27 13:03 | 40.52152 | 22.97656 | 28 ft | 12 kts | 323° |
| 2026-04-27 13:03 | 40.52196 | 22.97626 | 29 ft | 4 kts | 2° |
| 2026-04-27 13:03 | 40.52224 | 22.97662 | 29 ft | 7 kts | 47° |
| 2026-04-27 13:03 | 40.52246 | 22.97691 | 28 ft | 0 kts | 45° |